Terminal Aerodrome Forecast
Issued by NWS Cleveland, OH

Home | Current Version | Previous Version | Graphics & Text | Print | Product List | Glossary On
Versions: 1 2 3 4 5 6 7 8 9 10 11 12 13 14 15 16 17 18 19 20 21 22 23 24
000
FTUS41 KCLE 271700
TAFMFD
TAF
KMFD 271726Z 2718/2818 VRB03KT P6SM BKN025
     FM272100 28005KT P6SM SCT030
     FM272300 VRB03KT P6SM SKC
     FM281200 14005KT P6SM BKN250=

USA.gov is the U.S. government's official web portal to all federal, state and local government web resources and services.